Governador Eugenio Barros, Brazil
Current Conditions -  °F | °C
As of 10:00 AM on Wednesday 26 Nov 2014 (Local Time) from SBTE Reporting Station
Few Clouds Few Clouds  
Wind Chill: 33°   Ceiling: Unl
Heat Index: 35°   Visibility: 6mi
Dew Point: 20°   Wind: 5mph
Humidity: 46%   Direction: 90°E
Pressure: 29.85"   Gusts: NA
Location:  5.32°S, 44.25°W
Report Text: SBTE 261300Z 09004KT 9999 FEW030 33/20 Q1011
Loading
Personal Weather Stations






























Interactive Weather Map New forecast layout! Learn more

10-Day Weather Forecast

Advertisements
Track Severe Weather on mobile